sensor_id;sensor_type;location;lat;lon;timestamp;pressure;altitude;pressure_sealevel;temperature;humidity
18755;BME280;35061;47.664;9.166;2024-01-06T00:02:05;100316.45;;;5.68;100.00
18755;BME280;35061;47.664;9.166;2024-01-06T00:04:33;100309.94;;;5.68;100.00
18755;BME280;35061;47.664;9.166;2024-01-06T00:07:01;100317.23;;;5.69;100.00
18755;BME280;35061;47.664;9.166;2024-01-06T00:09:29;100313.89;;;5.70;100.00
18755;BME280;35061;47.664;9.166;2024-01-06T00:11:57;100302.09;;;5.72;100.00
18755;BME280;35061;47.664;9.166;2024-01-06T00:14:25;100310.13;;;5.73;100.00
18755;BME280;35061;47.664;9.166;2024-01-06T00:16:56;100310.30;;;5.70;100.00
18755;BME280;35061;47.664;9.166;2024-01-06T00:19:24;100310.30;;;5.70;100.00
18755;BME280;35061;47.664;9.166;2024-01-06T00:21:55;100308.23;;;5.70;100.00
18755;BME280;35061;47.664;9.166;2024-01-06T00:24:23;100315.01;;;5.73;100.00
18755;BME280;35061;47.664;9.166;2024-01-06T00:26:51;100310.30;;;5.70;100.00
18755;BME280;35061;47.664;9.166;2024-01-06T00:29:19;100315.46;;;5.71;100.00
18755;BME280;35061;47.664;9.166;2024-01-06T00:31:48;100316.74;;;5.70;100.00
18755;BME280;35061;47.664;9.166;2024-01-06T00:34:16;100323.09;;;5.75;100.00
18755;BME280;35061;47.664;9.166;2024-01-06T00:36:44;100312.48;;;5.75;100.00
18755;BME280;35061;47.664;9.166;2024-01-06T00:39:12;100312.16;;;5.73;100.00
18755;BME280;35061;47.664;9.166;2024-01-06T00:41:43;100324.36;;;5.73;100.00
18755;BME280;35061;47.664;9.166;2024-01-06T00:44:14;100329.23;;;5.73;100.00
18755;BME280;35061;47.664;9.166;2024-01-06T00:46:42;100321.97;;;5.72;100.00
18755;BME280;35061;47.664;9.166;2024-01-06T00:49:10;100330.80;;;5.74;100.00
18755;BME280;35061;47.664;9.166;2024-01-06T00:51:38;100333.32;;;5.72;100.00
18755;BME280;35061;47.664;9.166;2024-01-06T00:54:06;100336.16;;;5.72;100.00
18755;BME280;35061;47.664;9.166;2024-01-06T00:56:34;100332.86;;;5.73;100.00
18755;BME280;35061;47.664;9.166;2024-01-06T00:59:02;100338.87;;;5.76;100.00
18755;BME280;35061;47.664;9.166;2024-01-06T01:01:31;100336.49;;;5.74;100.00
18755;BME280;35061;47.664;9.166;2024-01-06T01:03:59;100342.48;;;5.76;100.00
18755;BME280;35061;47.664;9.166;2024-01-06T01:06:28;100345.32;;;5.76;100.00
18755;BME280;35061;47.664;9.166;2024-01-06T01:08:56;100345.98;;;5.71;100.00
18755;BME280;35061;47.664;9.166;2024-01-06T01:11:24;100340.88;;;5.66;100.00
18755;BME280;35061;47.664;9.166;2024-01-06T01:13:52;100337.57;;;5.67;100.00
18755;BME280;35061;47.664;9.166;2024-01-06T01:16:20;100345.65;;;5.69;100.00
18755;BME280;35061;47.664;9.166;2024-01-06T01:18:48;100354.64;;;5.67;100.00
18755;BME280;35061;47.664;9.166;2024-01-06T01:21:16;100347.67;;;5.59;100.00
18755;BME280;35061;47.664;9.166;2024-01-06T01:23:44;100351.47;;;5.56;100.00
18755;BME280;35061;47.664;9.166;2024-01-06T01:26:12;100356.47;;;5.52;100.00
18755;BME280;35061;47.664;9.166;2024-01-06T01:28:40;100368.63;;;5.52;100.00
18755;BME280;35061;47.664;9.166;2024-01-06T01:31:08;100372.43;;;5.49;100.00
18755;BME280;35061;47.664;9.166;2024-01-06T01:33:36;100373.34;;;5.46;100.00
18755;BME280;35061;47.664;9.166;2024-01-06T01:36:05;100384.07;;;5.42;100.00
18755;BME280;35061;47.664;9.166;2024-01-06T01:38:33;100387.86;;;5.39;100.00
18755;BME280;35061;47.664;9.166;2024-01-06T01:41:01;100391.46;;;5.39;100.00
18755;BME280;35061;47.664;9.166;2024-01-06T01:43:29;100395.58;;;5.38;100.00
18755;BME280;35061;47.664;9.166;2024-01-06T01:45:58;100404.90;;;5.39;100.00
18755;BME280;35061;47.664;9.166;2024-01-06T01:48:26;100401.10;;;5.42;100.00
18755;BME280;35061;47.664;9.166;2024-01-06T01:50:54;100397.48;;;5.41;100.00
18755;BME280;35061;47.664;9.166;2024-01-06T01:53:23;100407.74;;;5.39;100.00
18755;BME280;35061;47.664;9.166;2024-01-06T01:55:52;100411.83;;;5.38;100.00
18755;BME280;35061;47.664;9.166;2024-01-06T01:58:20;100413.56;;;5.35;100.00
18755;BME280;35061;47.664;9.166;2024-01-06T02:00:48;100414.52;;;5.32;100.00
18755;BME280;35061;47.664;9.166;2024-01-06T02:03:17;100426.32;;;5.30;100.00
18755;BME280;35061;47.664;9.166;2024-01-06T02:05:45;100416.34;;;5.26;100.00
18755;BME280;35061;47.664;9.166;2024-01-06T02:08:13;100413.20;;;5.24;100.00
18755;BME280;35061;47.664;9.166;2024-01-06T02:10:41;100417.75;;;5.21;100.00
18755;BME280;35061;47.664;9.166;2024-01-06T02:13:10;100422.66;;;5.21;100.00
18755;BME280;35061;47.664;9.166;2024-01-06T02:15:38;100414.28;;;5.17;100.00
18755;BME280;35061;47.664;9.166;2024-01-06T02:18:07;100413.59;;;5.13;100.00
18755;BME280;35061;47.664;9.166;2024-01-06T02:20:35;100411.70;;;5.10;100.00
18755;BME280;35061;47.664;9.166;2024-01-06T02:23:04;100407.41;;;5.05;100.00
18755;BME280;35061;47.664;9.166;2024-01-06T02:25:32;100407.74;;;5.07;100.00
18755;BME280;35061;47.664;9.166;2024-01-06T02:28:01;100405.39;;;5.06;100.00
18755;BME280;35061;47.664;9.166;2024-01-06T02:30:29;100406.63;;;5.05;100.00
18755;BME280;35061;47.664;9.166;2024-01-06T02:32:57;100408.66;;;5.04;100.00
18755;BME280;35061;47.664;9.166;2024-01-06T02:35:25;100414.68;;;5.06;100.00
18755;BME280;35061;47.664;9.166;2024-01-06T02:37:53;100415.30;;;5.01;100.00
18755;BME280;35061;47.664;9.166;2024-01-06T02:40:21;100421.28;;;5.03;100.00
18755;BME280;35061;47.664;9.166;2024-01-06T02:42:49;100428.21;;;5.02;100.00
18755;BME280;35061;47.664;9.166;2024-01-06T02:45:17;100423.31;;;5.02;100.00
18755;BME280;35061;47.664;9.166;2024-01-06T02:47:45;100425.37;;;5.02;100.00
18755;BME280;35061;47.664;9.166;2024-01-06T02:50:14;100420.63;;;4.99;100.00
18755;BME280;35061;47.664;9.166;2024-01-06T02:52:43;100425.37;;;5.02;100.00
18755;BME280;35061;47.664;9.166;2024-01-06T02:55:11;100425.37;;;5.02;100.00
18755;BME280;35061;47.664;9.166;2024-01-06T02:57:39;100423.80;;;5.01;100.00
18755;BME280;35061;47.664;9.166;2024-01-06T03:00:09;100429.62;;;4.97;100.00
18755;BME280;35061;47.664;9.166;2024-01-06T03:02:37;100444.73;;;4.94;100.00
18755;BME280;35061;47.664;9.166;2024-01-06T03:05:05;100451.01;;;4.89;100.00
18755;BME280;35061;47.664;9.166;2024-01-06T03:07:33;100442.60;;;4.85;100.00
18755;BME280;35061;47.664;9.166;2024-01-06T03:10:01;100441.98;;;4.81;100.00
18755;BME280;35061;47.664;9.166;2024-01-06T03:12:29;100450.16;;;4.79;100.00
18755;BME280;35061;47.664;9.166;2024-01-06T03:14:58;100444.59;;;4.75;100.00
18755;BME280;35061;47.664;9.166;2024-01-06T03:17:26;100433.05;;;4.70;100.00
18755;BME280;35061;47.664;9.166;2024-01-06T03:19:54;100436.59;;;4.61;100.00
18755;BME280;35061;47.664;9.166;2024-01-06T03:22:23;100442.77;;;4.59;100.00
18755;BME280;35061;47.664;9.166;2024-01-06T03:24:51;100436.06;;;4.53;100.00
18755;BME280;35061;47.664;9.166;2024-01-06T03:27:19;100438.58;;;4.51;100.00
18755;BME280;35061;47.664;9.166;2024-01-06T03:29:47;100433.05;;;4.47;100.00
18755;BME280;35061;47.664;9.166;2024-01-06T03:32:15;100441.23;;;4.45;100.00
18755;BME280;35061;47.664;9.166;2024-01-06T03:34:43;100437.24;;;4.43;100.00
18755;BME280;35061;47.664;9.166;2024-01-06T03:37:11;100442.93;;;4.43;100.00
18755;BME280;35061;47.664;9.166;2024-01-06T03:39:39;100443.42;;;4.41;100.00
18755;BME280;35061;47.664;9.166;2024-01-06T03:42:07;100449.08;;;4.41;100.00
18755;BME280;35061;47.664;9.166;2024-01-06T03:44:35;100441.46;;;4.38;100.00
18755;BME280;35061;47.664;9.166;2024-01-06T03:47:03;100450.65;;;4.42;100.00
18755;BME280;35061;47.664;9.166;2024-01-06T03:49:31;100454.73;;;4.41;100.00
18755;BME280;35061;47.664;9.166;2024-01-06T03:51:59;100451.10;;;4.41;100.00
18755;BME280;35061;47.664;9.166;2024-01-06T03:54:27;100454.37;;;4.39;100.00
18755;BME280;35061;47.664;9.166;2024-01-06T03:56:55;100458.82;;;4.40;100.00
18755;BME280;35061;47.664;9.166;2024-01-06T03:59:23;100458.82;;;4.40;100.00
18755;BME280;35061;47.664;9.166;2024-01-06T04:01:51;100455.06;;;4.43;100.00
18755;BME280;35061;47.664;9.166;2024-01-06T04:04:20;100457.58;;;4.41;100.00
18755;BME280;35061;47.664;9.166;2024-01-06T04:06:47;100460.75;;;4.43;100.00
18755;BME280;35061;47.664;9.166;2024-01-06T04:09:16;100463.10;;;4.45;100.00
18755;BME280;35061;47.664;9.166;2024-01-06T04:11:44;100468.34;;;4.46;100.00
18755;BME280;35061;47.664;9.166;2024-01-06T04:14:12;100470.37;;;4.46;100.00
18755;BME280;35061;47.664;9.166;2024-01-06T04:16:40;100473.99;;;4.46;100.00
18755;BME280;35061;47.664;9.166;2024-01-06T04:19:08;100475.56;;;4.47;100.00
18755;BME280;35061;47.664;9.166;2024-01-06T04:21:39;100475.56;;;4.47;100.00
18755;BME280;35061;47.664;9.166;2024-01-06T04:24:07;100485.21;;;4.50;100.00
18755;BME280;35061;47.664;9.166;2024-01-06T04:26:35;100485.99;;;4.51;100.00
18755;BME280;35061;47.664;9.166;2024-01-06T04:29:03;100480.66;;;4.53;100.00
18755;BME280;35061;47.664;9.166;2024-01-06T04:31:31;100495.19;;;4.55;100.00
18755;BME280;35061;47.664;9.166;2024-01-06T04:33:59;100493.12;;;4.55;100.00
18755;BME280;35061;47.664;9.166;2024-01-06T04:36:27;100489.95;;;4.53;100.00
18755;BME280;35061;47.664;9.166;2024-01-06T04:38:55;100499.01;;;4.61;100.00
18755;BME280;35061;47.664;9.166;2024-01-06T04:41:23;100500.80;;;4.68;100.00
18755;BME280;35061;47.664;9.166;2024-01-06T04:43:51;100500.35;;;4.69;100.00
18755;BME280;35061;47.664;9.166;2024-01-06T04:46:19;100501.13;;;4.70;100.00
18755;BME280;35061;47.664;9.166;2024-01-06T04:48:47;100501.59;;;4.68;100.00
18755;BME280;35061;47.664;9.166;2024-01-06T04:51:15;100498.42;;;4.66;100.00
18755;BME280;35061;47.664;9.166;2024-01-06T04:53:43;100507.38;;;4.65;100.00
18755;BME280;35061;47.664;9.166;2024-01-06T04:56:11;100511.50;;;4.64;100.00
18755;BME280;35061;47.664;9.166;2024-01-06T04:58:39;100511.50;;;4.64;100.00
18755;BME280;35061;47.664;9.166;2024-01-06T05:01:07;100507.87;;;4.63;100.00
18755;BME280;35061;47.664;9.166;2024-01-06T05:03:36;100503.91;;;4.60;100.00
18755;BME280;35061;47.664;9.166;2024-01-06T05:06:04;100508.43;;;4.58;100.00
18755;BME280;35061;47.664;9.166;2024-01-06T05:08:32;100516.96;;;4.58;100.00
18755;BME280;35061;47.664;9.166;2024-01-06T05:11:00;100516.51;;;4.59;100.00
18755;BME280;35061;47.664;9.166;2024-01-06T05:13:28;100520.13;;;4.60;100.00
18755;BME280;35061;47.664;9.166;2024-01-06T05:15:56;100516.83;;;4.61;100.00
18755;BME280;35061;47.664;9.166;2024-01-06T05:18:24;100526.48;;;4.64;100.00
18755;BME280;35061;47.664;9.166;2024-01-06T05:20:52;100521.57;;;4.65;100.00
18755;BME280;35061;47.664;9.166;2024-01-06T05:23:21;100521.90;;;4.67;100.00
18755;BME280;35061;47.664;9.166;2024-01-06T05:25:50;100522.00;;;4.76;100.00
18755;BME280;35061;47.664;9.166;2024-01-06T05:28:18;100525.04;;;4.82;100.00
18755;BME280;35061;47.664;9.166;2024-01-06T05:30:46;100528.54;;;4.86;100.00
18755;BME280;35061;47.664;9.166;2024-01-06T05:33:16;100530.89;;;4.87;100.00
18755;BME280;35061;47.664;9.166;2024-01-06T05:35:44;100529.32;;;4.86;100.00
18755;BME280;35061;47.664;9.166;2024-01-06T05:38:12;100532.49;;;4.88;100.00
18755;BME280;35061;47.664;9.166;2024-01-06T05:40:40;100528.99;;;4.84;100.00
18755;BME280;35061;47.664;9.166;2024-01-06T05:43:08;100541.36;;;4.91;100.00
18755;BME280;35061;47.664;9.166;2024-01-06T05:45:39;100539.43;;;4.87;100.00
18755;BME280;35061;47.664;9.166;2024-01-06T05:48:10;100534.69;;;4.84;100.00
18755;BME280;35061;47.664;9.166;2024-01-06T05:50:38;100541.62;;;4.83;100.00
18755;BME280;35061;47.664;9.166;2024-01-06T05:53:10;100537.17;;;4.82;100.00
18755;BME280;35061;47.664;9.166;2024-01-06T05:55:38;100544.43;;;4.83;100.00
18755;BME280;35061;47.664;9.166;2024-01-06T05:58:06;100555.77;;;4.83;100.00
18755;BME280;35061;47.664;9.166;2024-01-06T06:00:34;100553.62;;;4.87;100.00
18755;BME280;35061;47.664;9.166;2024-01-06T06:03:02;100561.80;;;4.85;100.00
18755;BME280;35061;47.664;9.166;2024-01-06T06:05:30;100566.54;;;4.88;100.00
18755;BME280;35061;47.664;9.166;2024-01-06T06:07:58;100556.34;;;4.91;100.00
18755;BME280;35061;47.664;9.166;2024-01-06T06:10:26;100563.95;;;4.94;100.00
18755;BME280;35061;47.664;9.166;2024-01-06T06:13:09;100576.05;;;4.95;100.00
18755;BME280;35061;47.664;9.166;2024-01-06T06:15:38;100578.57;;;4.93;100.00
18755;BME280;35061;47.664;9.166;2024-01-06T06:18:06;100572.91;;;4.93;100.00
18755;BME280;35061;47.664;9.166;2024-01-06T06:20:34;100574.16;;;4.92;100.00
18755;BME280;35061;47.664;9.166;2024-01-06T06:23:02;100574.16;;;4.92;100.00
18755;BME280;35061;47.664;9.166;2024-01-06T06:25:30;100578.57;;;4.93;100.00
18755;BME280;35061;47.664;9.166;2024-01-06T06:27:58;100578.24;;;4.91;100.00
18755;BME280;35061;47.664;9.166;2024-01-06T06:30:26;100574.16;;;4.92;100.00
18755;BME280;35061;47.664;9.166;2024-01-06T06:32:54;100569.38;;;4.88;100.00
18755;BME280;35061;47.664;9.166;2024-01-06T06:35:26;100575.66;;;4.83;100.00
18755;BME280;35061;47.664;9.166;2024-01-06T06:37:54;100574.84;;;4.83;100.00
18755;BME280;35061;47.664;9.166;2024-01-06T06:40:22;100573.08;;;4.76;100.00
18755;BME280;35061;47.664;9.166;2024-01-06T06:42:49;100572.72;;;4.74;100.00
18755;BME280;35061;47.664;9.166;2024-01-06T06:45:18;100578.73;;;4.76;100.00
18755;BME280;35061;47.664;9.166;2024-01-06T06:47:52;100583.64;;;4.75;100.00
18755;BME280;35061;47.664;9.166;2024-01-06T06:50:20;100580.47;;;4.73;100.00
18755;BME280;35061;47.664;9.166;2024-01-06T06:52:51;100576.51;;;4.71;100.00
18755;BME280;35061;47.664;9.166;2024-01-06T06:55:20;100579.32;;;4.71;100.00
18755;BME280;35061;47.664;9.166;2024-01-06T06:57:48;100587.37;;;4.72;100.00
18755;BME280;35061;47.664;9.166;2024-01-06T07:00:16;100592.70;;;4.70;100.00
18755;BME280;35061;47.664;9.166;2024-01-06T07:02:45;100594.88;;;4.66;100.00
18755;BME280;35061;47.664;9.166;2024-01-06T07:05:13;100600.58;;;4.66;100.00
18755;BME280;35061;47.664;9.166;2024-01-06T07:07:41;100606.23;;;4.66;100.00
18755;BME280;35061;47.664;9.166;2024-01-06T07:10:12;100605.58;;;4.62;100.00
18755;BME280;35061;47.664;9.166;2024-01-06T07:12:40;100606.37;;;4.63;100.00
18755;BME280;35061;47.664;9.166;2024-01-06T07:15:09;100607.61;;;4.61;100.00
18755;BME280;35061;47.664;9.166;2024-01-06T07:17:38;100612.94;;;4.59;100.00
18755;BME280;35061;47.664;9.166;2024-01-06T07:20:07;100616.11;;;4.61;100.00
18755;BME280;35061;47.664;9.166;2024-01-06T07:22:36;100615.78;;;4.59;100.00
18755;BME280;35061;47.664;9.166;2024-01-06T07:25:04;100613.16;;;4.65;100.00
18755;BME280;35061;47.664;9.166;2024-01-06T07:27:33;100615.06;;;4.68;100.00
18755;BME280;35061;47.664;9.166;2024-01-06T07:30:01;100624.02;;;4.67;100.00
18755;BME280;35061;47.664;9.166;2024-01-06T07:32:31;100615.52;;;4.67;100.00
18755;BME280;35061;47.664;9.166;2024-01-06T07:34:59;100625.66;;;4.68;100.00
18755;BME280;35061;47.664;9.166;2024-01-06T07:37:32;100642.07;;;4.73;100.00
18755;BME280;35061;47.664;9.166;2024-01-06T07:40:00;100642.73;;;4.77;100.00
18755;BME280;35061;47.664;9.166;2024-01-06T07:42:28;100638.90;;;4.84;100.00
18755;BME280;35061;47.664;9.166;2024-01-06T07:44:56;100639.66;;;4.84;100.00
18755;BME280;35061;47.664;9.166;2024-01-06T07:47:24;100641.95;;;4.89;100.00
18755;BME280;35061;47.664;9.166;2024-01-06T07:49:52;100645.57;;;4.90;100.00
18755;BME280;35061;47.664;9.166;2024-01-06T07:52:21;100647.01;;;4.95;100.00
18755;BME280;35061;47.664;9.166;2024-01-06T07:54:48;100651.20;;;5.03;100.00
18755;BME280;35061;47.664;9.166;2024-01-06T07:57:16;100652.54;;;5.11;100.00
18755;BME280;35061;47.664;9.166;2024-01-06T07:59:45;100650.37;;;5.15;100.00
18755;BME280;35061;47.664;9.166;2024-01-06T08:02:13;100656.69;;;5.20;100.00
18755;BME280;35061;47.664;9.166;2024-01-06T08:04:41;100656.27;;;5.21;100.00
18755;BME280;35061;47.664;9.166;2024-01-06T08:07:10;100661.46;;;5.23;100.00
18755;BME280;35061;47.664;9.166;2024-01-06T08:09:38;100658.65;;;5.23;100.00
18755;BME280;35061;47.664;9.166;2024-01-06T08:12:07;100653.42;;;5.21;100.00
18755;BME280;35061;47.664;9.166;2024-01-06T08:14:35;100654.86;;;5.26;100.00
18755;BME280;35061;47.664;9.166;2024-01-06T08:17:03;100660.35;;;5.20;100.00
18755;BME280;35061;47.664;9.166;2024-01-06T08:19:31;100652.63;;;5.21;100.00
18755;BME280;35061;47.664;9.166;2024-01-06T08:22:01;100652.38;;;5.28;100.00
18755;BME280;35061;47.664;9.166;2024-01-06T08:24:29;100648.16;;;5.33;100.00
18755;BME280;35061;47.664;9.166;2024-01-06T08:26:57;100648.94;;;5.33;100.00
18755;BME280;35061;47.664;9.166;2024-01-06T08:29:25;100656.72;;;5.42;100.00
18755;BME280;35061;47.664;9.166;2024-01-06T08:31:53;100652.83;;;5.49;100.00
18755;BME280;35061;47.664;9.166;2024-01-06T08:34:22;100653.84;;;5.55;100.00
18755;BME280;35061;47.664;9.166;2024-01-06T08:36:52;100657.67;;;5.61;100.00
18755;BME280;35061;47.664;9.166;2024-01-06T08:39:21;100659.60;;;5.64;100.00
18755;BME280;35061;47.664;9.166;2024-01-06T08:41:49;100659.93;;;5.66;100.00
18755;BME280;35061;47.664;9.166;2024-01-06T08:44:17;100667.05;;;5.71;100.00
18755;BME280;35061;47.664;9.166;2024-01-06T08:46:45;100670.36;;;5.69;100.00
18755;BME280;35061;47.664;9.166;2024-01-06T08:49:13;100669.41;;;5.72;100.00
18755;BME280;35061;47.664;9.166;2024-01-06T08:51:41;100678.30;;;5.75;100.00
18755;BME280;35061;47.664;9.166;2024-01-06T08:54:10;100676.24;;;5.75;100.00
18755;BME280;35061;47.664;9.166;2024-01-06T08:56:37;100677.03;;;5.76;100.00
18755;BME280;35061;47.664;9.166;2024-01-06T08:59:06;100677.81;;;5.76;100.00
18755;BME280;35061;47.664;9.166;2024-01-06T09:01:34;100685.43;;;5.79;100.00
18755;BME280;35061;47.664;9.166;2024-01-06T09:04:04;100685.43;;;5.79;100.00
18755;BME280;35061;47.664;9.166;2024-01-06T09:06:32;100683.70;;;5.82;100.00
18755;BME280;35061;47.664;9.166;2024-01-06T09:09:00;100691.77;;;5.83;100.00
18755;BME280;35061;47.664;9.166;2024-01-06T09:11:28;100692.40;;;5.87;100.00
18755;BME280;35061;47.664;9.166;2024-01-06T09:13:56;100687.98;;;5.86;100.00
18755;BME280;35061;47.664;9.166;2024-01-06T09:16:24;100691.16;;;5.89;100.00
18755;BME280;35061;47.664;9.166;2024-01-06T09:18:52;100703.19;;;5.93;100.00
18755;BME280;35061;47.664;9.166;2024-01-06T09:21:20;100697.96;;;5.91;100.00
18755;BME280;35061;47.664;9.166;2024-01-06T09:23:48;100705.34;;;5.89;100.00
18755;BME280;35061;47.664;9.166;2024-01-06T09:26:16;100703.32;;;5.89;100.00
18755;BME280;35061;47.664;9.166;2024-01-06T09:28:44;100706.75;;;5.84;100.00
18755;BME280;35061;47.664;9.166;2024-01-06T09:31:12;100713.23;;;5.84;100.00
18755;BME280;35061;47.664;9.166;2024-01-06T09:33:41;100710.41;;;5.84;100.00
18755;BME280;35061;47.664;9.166;2024-01-06T09:36:11;100710.71;;;5.86;100.00
18755;BME280;35061;47.664;9.166;2024-01-06T09:38:41;100710.28;;;5.88;100.00
18755;BME280;35061;47.664;9.166;2024-01-06T09:41:09;100710.71;;;5.86;100.00
18755;BME280;35061;47.664;9.166;2024-01-06T09:43:37;100710.28;;;5.88;100.00
18755;BME280;35061;47.664;9.166;2024-01-06T09:46:11;100720.72;;;5.91;100.00
18755;BME280;35061;47.664;9.166;2024-01-06T09:48:43;100724.02;;;5.90;100.00
18755;BME280;35061;47.664;9.166;2024-01-06T09:51:11;100721.30;;;5.86;100.00
18755;BME280;35061;47.664;9.166;2024-01-06T09:53:48;100723.37;;;5.85;100.00
18755;BME280;35061;47.664;9.166;2024-01-06T09:56:16;100725.55;;;5.81;100.00
18755;BME280;35061;47.664;9.166;2024-01-06T09:58:45;100717.15;;;5.78;100.00
18755;BME280;35061;47.664;9.166;2024-01-06T10:01:14;100714.11;;;5.72;100.00
18755;BME280;35061;47.664;9.166;2024-01-06T10:03:42;100715.81;;;5.69;100.00
18755;BME280;35061;47.664;9.166;2024-01-06T10:06:13;100715.68;;;5.73;100.00
18755;BME280;35061;47.664;9.166;2024-01-06T10:08:48;100716.95;;;5.72;100.00
18755;BME280;35061;47.664;9.166;2024-01-06T10:11:16;100718.07;;;5.75;100.00
18755;BME280;35061;47.664;9.166;2024-01-06T10:13:44;100713.66;;;5.73;100.00
18755;BME280;35061;47.664;9.166;2024-01-06T10:16:12;100707.51;;;5.75;100.00
18755;BME280;35061;47.664;9.166;2024-01-06T10:18:41;100703.05;;;5.74;100.00
18755;BME280;35061;47.664;9.166;2024-01-06T10:21:09;100704.01;;;5.71;100.00
18755;BME280;35061;47.664;9.166;2024-01-06T10:23:37;100700.02;;;5.68;100.00
18755;BME280;35061;47.664;9.166;2024-01-06T10:26:06;100702.54;;;5.66;100.00
18755;BME280;35061;47.664;9.166;2024-01-06T10:28:34;100704.56;;;5.66;100.00
18755;BME280;35061;47.664;9.166;2024-01-06T10:31:03;100704.14;;;5.67;100.00
18755;BME280;35061;47.664;9.166;2024-01-06T10:33:32;100701.33;;;5.54;100.00
18755;BME280;35061;47.664;9.166;2024-01-06T10:36:01;100708.06;;;5.48;100.00
18755;BME280;35061;47.664;9.166;2024-01-06T10:38:31;100703.65;;;5.47;100.00
18755;BME280;35061;47.664;9.166;2024-01-06T10:41:04;100712.15;;;5.47;100.00
18755;BME280;35061;47.664;9.166;2024-01-06T10:43:35;100711.17;;;5.40;100.00
18755;BME280;35061;47.664;9.166;2024-01-06T10:46:06;100705.05;;;5.29;100.00
18755;BME280;35061;47.664;9.166;2024-01-06T10:48:39;100711.10;;;5.31;100.00
18755;BME280;35061;47.664;9.166;2024-01-06T10:51:11;100708.91;;;5.35;100.00
18755;BME280;35061;47.664;9.166;2024-01-06T10:53:41;100715.71;;;5.38;100.00
18755;BME280;35061;47.664;9.166;2024-01-06T10:56:12;100715.71;;;5.38;100.00
18755;BME280;35061;47.664;9.166;2024-01-06T10:58:47;100708.78;;;5.39;100.00
18755;BME280;35061;47.664;9.166;2024-01-06T11:01:20;100708.68;;;5.42;100.00
18755;BME280;35061;47.664;9.166;2024-01-06T11:03:54;100701.13;;;5.49;100.00
18755;BME280;35061;47.664;9.166;2024-01-06T11:06:23;100694.52;;;5.52;100.00
18755;BME280;35061;47.664;9.166;2024-01-06T11:09:14;100695.21;;;5.56;100.00
18755;BME280;35061;47.664;9.166;2024-01-06T11:11:43;100690.17;;;5.60;100.00
18755;BME280;35061;47.664;9.166;2024-01-06T11:14:22;100691.19;;;5.66;100.00
18755;BME280;35061;47.664;9.166;2024-01-06T11:16:52;100683.77;;;5.69;100.00
18755;BME280;35061;47.664;9.166;2024-01-06T11:22:25;100685.95;;;5.87;100.00
18755;BME280;35061;47.664;9.166;2024-01-06T11:25:19;100686.61;;;5.91;100.00
18755;BME280;35061;47.664;9.166;2024-01-06T11:27:49;100686.74;;;5.87;100.00
18755;BME280;35061;47.664;9.166;2024-01-06T11:30:22;100684.87;;;5.94;100.00
18755;BME280;35061;47.664;9.166;2024-01-06T11:32:52;100687.82;;;6.03;100.00
18755;BME280;35061;47.664;9.166;2024-01-06T11:35:21;100686.22;;;6.02;100.00
18755;BME280;35061;47.664;9.166;2024-01-06T11:37:53;100695.18;;;6.00;100.00
18755;BME280;35061;47.664;9.166;2024-01-06T11:43:10;100680.92;;;6.13;100.00
18755;BME280;35061;47.664;9.166;2024-01-06T11:45:42;100682.66;;;6.11;100.00
18755;BME280;35061;47.664;9.166;2024-01-06T11:48:11;100674.45;;;6.13;100.00
18755;BME280;35061;47.664;9.166;2024-01-06T11:50:42;100679.05;;;6.20;100.00
18755;BME280;35061;47.664;9.166;2024-01-06T11:53:11;100675.30;;;6.23;100.00
18755;BME280;35061;47.664;9.166;2024-01-06T11:55:39;100661.07;;;6.23;100.00
18755;BME280;35061;47.664;9.166;2024-01-06T11:58:07;100662.64;;;6.24;100.00
18755;BME280;35061;47.664;9.166;2024-01-06T12:00:36;100651.59;;;6.26;100.00
18755;BME280;35061;47.664;9.166;2024-01-06T12:03:08;100661.53;;;6.21;100.00
18755;BME280;35061;47.664;9.166;2024-01-06T12:05:36;100655.38;;;6.23;100.00
18755;BME280;35061;47.664;9.166;2024-01-06T12:08:05;100652.05;;;6.24;100.00
18755;BME280;35061;47.664;9.166;2024-01-06T12:10:35;100646.84;;;6.23;100.00
18755;BME280;35061;47.664;9.166;2024-01-06T12:13:05;100647.44;;;6.18;100.00
18755;BME280;35061;47.664;9.166;2024-01-06T12:15:37;100646.81;;;6.13;100.00
18755;BME280;35061;47.664;9.166;2024-01-06T12:18:07;100648.05;;;6.12;100.00
18755;BME280;35061;47.664;9.166;2024-01-06T12:20:36;100641.88;;;6.14;100.00
18755;BME280;35061;47.664;9.166;2024-01-06T12:23:04;100646.65;;;6.17;100.00
18755;BME280;35061;47.664;9.166;2024-01-06T12:25:34;100642.83;;;6.11;100.00
18755;BME280;35061;47.664;9.166;2024-01-06T12:28:06;100643.45;;;6.06;100.00
18755;BME280;35061;47.664;9.166;2024-01-06T12:30:35;100645.64;;;6.02;100.00
18755;BME280;35061;47.664;9.166;2024-01-06T12:33:04;100637.43;;;6.04;100.00
18755;BME280;35061;47.664;9.166;2024-01-06T12:35:32;100635.04;;;6.02;100.00
18755;BME280;35061;47.664;9.166;2024-01-06T12:38:03;100636.87;;;5.96;100.00
18755;BME280;35061;47.664;9.166;2024-01-06T12:40:35;100632.27;;;5.89;100.00
18755;BME280;35061;47.664;9.166;2024-01-06T12:43:05;100630.82;;;5.84;100.00
18755;BME280;35061;47.664;9.166;2024-01-06T12:45:33;100637.76;;;5.83;100.00
18755;BME280;35061;47.664;9.166;2024-01-06T12:48:02;100634.72;;;5.78;100.00
18755;BME280;35061;47.664;9.166;2024-01-06T12:50:30;100635.99;;;5.77;100.00
18755;BME280;35061;47.664;9.166;2024-01-06T12:52:58;100640.54;;;5.74;100.00
18755;BME280;35061;47.664;9.166;2024-01-06T12:55:26;100640.08;;;5.76;100.00
18755;BME280;35061;47.664;9.166;2024-01-06T12:57:54;100637.56;;;5.78;100.00
18755;BME280;35061;47.664;9.166;2024-01-06T13:00:22;100635.99;;;5.77;100.00
18755;BME280;35061;47.664;9.166;2024-01-06T13:02:50;100639.95;;;5.79;100.00
18755;BME280;35061;47.664;9.166;2024-01-06T13:05:18;100638.34;;;5.78;100.00